sensor_id;sensor_type;location;lat;lon;timestamp;pressure;altitude;pressure_sealevel;temperature;humidity
25722;BME280;13578;53.450;15.496;2023-02-03T00:02:16;100183.56;;;-1.60;100.00
25722;BME280;13578;53.450;15.496;2023-02-03T00:05:16;100178.94;;;-1.56;100.00
25722;BME280;13578;53.450;15.496;2023-02-03T00:08:18;100162.06;;;-1.62;100.00
25722;BME280;13578;53.450;15.496;2023-02-03T00:11:19;100163.94;;;-1.64;100.00
25722;BME280;13578;53.450;15.496;2023-02-03T00:14:20;100159.31;;;-1.60;100.00
25722;BME280;13578;53.450;15.496;2023-02-03T00:17:20;100152.19;;;-1.61;100.00
25722;BME280;13578;53.450;15.496;2023-02-03T00:20:21;100149.47;;;-1.61;100.00
25722;BME280;13578;53.450;15.496;2023-02-03T00:23:22;100136.03;;;-1.61;100.00
25722;BME280;13578;53.450;15.496;2023-02-03T00:26:22;100131.41;;;-1.57;100.00
25722;BME280;13578;53.450;15.496;2023-02-03T00:29:25;100119.78;;;-1.58;100.00
25722;BME280;13578;53.450;15.496;2023-02-03T00:32:25;100104.56;;;-1.59;100.00
25722;BME280;13578;53.450;15.496;2023-02-03T00:35:26;100100.63;;;-1.49;100.00
25722;BME280;13578;53.450;15.496;2023-02-03T00:38:27;100096.25;;;-1.53;100.00
25722;BME280;13578;53.450;15.496;2023-02-03T00:41:29;100089.09;;;-1.52;100.00
25722;BME280;13578;53.450;15.496;2023-02-03T00:44:31;100084.56;;;-1.52;100.00
25722;BME280;13578;53.450;15.496;2023-02-03T00:47:32;100074.72;;;-1.53;100.00
25722;BME280;13578;53.450;15.496;2023-02-03T00:50:32;100077.38;;;-1.51;100.00
25722;BME280;13578;53.450;15.496;2023-02-03T00:53:33;100063.97;;;-1.53;100.00
25722;BME280;13578;53.450;15.496;2023-02-03T00:56:33;100071.03;;;-1.50;100.00
25722;BME280;13578;53.450;15.496;2023-02-03T00:59:34;100079.94;;;-1.48;100.00
25722;BME280;13578;53.450;15.496;2023-02-03T01:02:34;100100.94;;;-1.33;100.00
25722;BME280;13578;53.450;15.496;2023-02-03T01:05:36;100076.00;;;-1.38;100.00
25722;BME280;13578;53.450;15.496;2023-02-03T01:08:36;100074.00;;;-1.33;100.00
25722;BME280;13578;53.450;15.496;2023-02-03T01:11:37;100080.28;;;-1.32;100.00
25722;BME280;13578;53.450;15.496;2023-02-03T01:14:37;100077.41;;;-1.28;100.00
25722;BME280;13578;53.450;15.496;2023-02-03T01:17:38;100069.16;;;-1.23;100.00
25722;BME280;13578;53.450;15.496;2023-02-03T01:20:39;100062.78;;;-1.20;100.00
25722;BME280;13578;53.450;15.496;2023-02-03T01:23:39;100052.00;;;-1.20;100.00
25722;BME280;13578;53.450;15.496;2023-02-03T01:26:40;100047.16;;;-1.10;100.00
25722;BME280;13578;53.450;15.496;2023-02-03T01:29:41;100039.66;;;-1.02;100.00
25722;BME280;13578;53.450;15.496;2023-02-03T01:32:41;100015.78;;;-1.12;100.00
25722;BME280;13578;53.450;15.496;2023-02-03T01:35:42;100005.59;;;-1.03;100.00
25722;BME280;13578;53.450;15.496;2023-02-03T01:38:43;99987.91;;;-1.10;100.00
25722;BME280;13578;53.450;15.496;2023-02-03T01:41:44;99977.56;;;-0.99;100.00
25722;BME280;13578;53.450;15.496;2023-02-03T01:44:47;99969.59;;;-1.02;100.00
25722;BME280;13578;53.450;15.496;2023-02-03T01:47:57;99962.59;;;-1.06;100.00
25722;BME280;13578;53.450;15.496;2023-02-03T01:51:01;99953.50;;;-1.04;100.00
25722;BME280;13578;53.450;15.496;2023-02-03T01:54:03;99950.53;;;-0.96;100.00
25722;BME280;13578;53.450;15.496;2023-02-03T01:57:35;99959.28;;;-0.91;100.00
25722;BME280;13578;53.450;15.496;2023-02-03T02:00:38;99944.47;;;-1.03;100.00
25722;BME280;13578;53.450;15.496;2023-02-03T02:03:48;99946.63;;;-0.89;100.00
25722;BME280;13578;53.450;15.496;2023-02-03T02:06:50;99928.00;;;-0.95;100.00
25722;BME280;13578;53.450;15.496;2023-02-03T02:09:51;99920.81;;;-0.94;100.00
25722;BME280;13578;53.450;15.496;2023-02-03T02:12:55;99920.66;;;-0.91;100.00
25722;BME280;13578;53.450;15.496;2023-02-03T02:16:07;99916.16;;;-0.91;100.00
25722;BME280;13578;53.450;15.496;2023-02-03T02:22:43;99911.38;;;-0.84;100.00
25722;BME280;13578;53.450;15.496;2023-02-03T02:39:17;99875.41;;;-0.61;100.00
25722;BME280;13578;53.450;15.496;2023-02-03T02:42:31;99846.00;;;-0.67;100.00
25722;BME280;13578;53.450;15.496;2023-02-03T02:48:48;99827.53;;;-0.56;100.00
25722;BME280;13578;53.450;15.496;2023-02-03T02:51:52;99839.22;;;-0.55;100.00
25722;BME280;13578;53.450;15.496;2023-02-03T02:54:55;99835.91;;;-0.62;100.00
25722;BME280;13578;53.450;15.496;2023-02-03T02:58:01;99817.31;;;-0.68;100.00
25722;BME280;13578;53.450;15.496;2023-02-03T03:01:04;99801.53;;;-0.57;100.00
25722;BME280;13578;53.450;15.496;2023-02-03T03:04:09;99803.09;;;-0.51;100.00
25722;BME280;13578;53.450;15.496;2023-02-03T03:07:21;99801.94;;;-0.45;100.00
25722;BME280;13578;53.450;15.496;2023-02-03T03:10:25;99794.63;;;-0.43;100.00
25722;BME280;13578;53.450;15.496;2023-02-03T03:13:31;99803.00;;;-0.50;100.00
25722;BME280;13578;53.450;15.496;2023-02-03T03:16:36;99806.63;;;-0.51;100.00
25722;BME280;13578;53.450;15.496;2023-02-03T03:19:42;99793.16;;;-0.51;100.00
25722;BME280;13578;53.450;15.496;2023-02-03T03:22:55;99786.63;;;-0.45;100.00
25722;BME280;13578;53.450;15.496;2023-02-03T03:26:03;99790.25;;;-0.46;100.00
25722;BME280;13578;53.450;15.496;2023-02-03T03:32:23;99785.41;;;-0.38;100.00
25722;BME280;13578;53.450;15.496;2023-02-03T03:35:30;99787.78;;;-0.30;100.00
25722;BME280;13578;53.450;15.496;2023-02-03T03:38:41;99787.69;;;-0.28;100.00
25722;BME280;13578;53.450;15.496;2023-02-03T03:42:09;99782.22;;;-0.27;100.00
25722;BME280;13578;53.450;15.496;2023-02-03T03:48:33;99745.69;;;-0.34;100.00
25722;BME280;13578;53.450;15.496;2023-02-03T03:51:41;99742.84;;;-0.31;100.00
25722;BME280;13578;53.450;15.496;2023-02-03T03:54:45;99736.03;;;-0.40;100.00
25722;BME280;13578;53.450;15.496;2023-02-03T03:57:54;99731.88;;;-0.47;100.00
25722;BME280;13578;53.450;15.496;2023-02-03T04:01:01;99709.44;;;-0.47;100.00
25722;BME280;13578;53.450;15.496;2023-02-03T04:04:06;99697.44;;;-0.40;100.00
25722;BME280;13578;53.450;15.496;2023-02-03T04:07:07;99686.72;;;-0.42;100.00
25722;BME280;13578;53.450;15.496;2023-02-03T04:10:38;99679.06;;;-0.32;100.00
25722;BME280;13578;53.450;15.496;2023-02-03T04:13:39;99674.63;;;-0.33;100.00
25722;BME280;13578;53.450;15.496;2023-02-03T04:16:40;99643.63;;;-0.43;100.00
25722;BME280;13578;53.450;15.496;2023-02-03T04:19:40;99651.44;;;-0.37;100.00
25722;BME280;13578;53.450;15.496;2023-02-03T04:22:41;99650.34;;;-0.33;100.00
25722;BME280;13578;53.450;15.496;2023-02-03T04:25:42;99630.44;;;-0.30;100.00
25722;BME280;13578;53.450;15.496;2023-02-03T04:28:43;99619.88;;;-0.35;100.00
25722;BME280;13578;53.450;15.496;2023-02-03T04:31:43;99608.31;;;-0.37;100.00
25722;BME280;13578;53.450;15.496;2023-02-03T04:34:45;99613.19;;;-0.26;100.00
25722;BME280;13578;53.450;15.496;2023-02-03T04:37:45;99600.13;;;-0.17;100.00
25722;BME280;13578;53.450;15.496;2023-02-03T04:40:46;99586.75;;;-0.20;100.00
25722;BME280;13578;53.450;15.496;2023-02-03T04:43:46;99564.78;;;-0.29;100.00
25722;BME280;13578;53.450;15.496;2023-02-03T04:46:47;99559.16;;;-0.25;100.00
25722;BME280;13578;53.450;15.496;2023-02-03T04:49:48;99563.44;;;-0.21;100.00
25722;BME280;13578;53.450;15.496;2023-02-03T04:52:48;99540.09;;;-0.22;100.00
25722;BME280;13578;53.450;15.496;2023-02-03T04:55:49;99524.91;;;-0.23;100.00
25722;BME280;13578;53.450;15.496;2023-02-03T04:58:49;99517.53;;;-0.19;100.00
25722;BME280;13578;53.450;15.496;2023-02-03T05:01:50;99523.31;;;-0.09;100.00
25722;BME280;13578;53.450;15.496;2023-02-03T05:04:50;99506.56;;;-0.16;100.00
25722;BME280;13578;53.450;15.496;2023-02-03T05:07:51;99498.47;;;-0.16;100.00
25722;BME280;13578;53.450;15.496;2023-02-03T05:10:52;99479.44;;;-0.13;100.00
25722;BME280;13578;53.450;15.496;2023-02-03T05:13:53;99460.38;;;-0.10;100.00
25722;BME280;13578;53.450;15.496;2023-02-03T05:16:53;99455.16;;;-0.13;100.00
25722;BME280;13578;53.450;15.496;2023-02-03T05:19:54;99436.81;;;-0.06;100.00
25722;BME280;13578;53.450;15.496;2023-02-03T05:22:55;99424.28;;;-0.07;100.00
25722;BME280;13578;53.450;15.496;2023-02-03T05:25:55;99426.03;;;-0.06;100.00
25722;BME280;13578;53.450;15.496;2023-02-03T05:28:56;99403.34;;;-0.02;100.00
25722;BME280;13578;53.450;15.496;2023-02-03T05:31:56;99392.38;;;0.01;100.00
25722;BME280;13578;53.450;15.496;2023-02-03T05:34:57;99380.56;;;0.04;100.00
25722;BME280;13578;53.450;15.496;2023-02-03T05:37:57;99368.25;;;-0.02;100.00
25722;BME280;13578;53.450;15.496;2023-02-03T05:40:58;99353.50;;;0.05;100.00
25722;BME280;13578;53.450;15.496;2023-02-03T05:44:19;99344.78;;;0.00;100.00
25722;BME280;13578;53.450;15.496;2023-02-03T05:47:20;99343.41;;;0.09;100.00
25722;BME280;13578;53.450;15.496;2023-02-03T05:50:20;99321.97;;;0.06;100.00
25722;BME280;13578;53.450;15.496;2023-02-03T05:53:22;99342.00;;;0.02;100.00
25722;BME280;13578;53.450;15.496;2023-02-03T05:56:22;99316.81;;;0.01;100.00
25722;BME280;13578;53.450;15.496;2023-02-03T05:59:23;99294.94;;;0.07;100.00
25722;BME280;13578;53.450;15.496;2023-02-03T06:02:24;99287.53;;;0.11;100.00
25722;BME280;13578;53.450;15.496;2023-02-03T06:05:25;99267.94;;;0.07;100.00
25722;BME280;13578;53.450;15.496;2023-02-03T06:08:26;99273.25;;;0.09;100.00
25722;BME280;13578;53.450;15.496;2023-02-03T06:11:28;99259.06;;;0.05;100.00
25722;BME280;13578;53.450;15.496;2023-02-03T06:14:28;99241.03;;;0.06;100.00
25722;BME280;13578;53.450;15.496;2023-02-03T06:17:29;99218.38;;;0.08;100.00
25722;BME280;13578;53.450;15.496;2023-02-03T06:20:30;99216.47;;;0.10;100.00
25722;BME280;13578;53.450;15.496;2023-02-03T06:23:30;99206.03;;;0.04;100.00
25722;BME280;13578;53.450;15.496;2023-02-03T06:26:31;99202.38;;;0.05;100.00
25722;BME280;13578;53.450;15.496;2023-02-03T06:29:32;99184.47;;;0.04;100.00
25722;BME280;13578;53.450;15.496;2023-02-03T06:32:32;99183.75;;;0.17;100.00
25722;BME280;13578;53.450;15.496;2023-02-03T06:35:33;99155.47;;;0.08;100.00
25722;BME280;13578;53.450;15.496;2023-02-03T06:38:33;99161.47;;;0.13;100.00
25722;BME280;13578;53.450;15.496;2023-02-03T06:41:34;99153.72;;;0.07;100.00
25722;BME280;13578;53.450;15.496;2023-02-03T06:44:35;99129.97;;;0.13;100.00
25722;BME280;13578;53.450;15.496;2023-02-03T06:47:39;99099.59;;;0.10;100.00
25722;BME280;13578;53.450;15.496;2023-02-03T06:50:40;99099.34;;;0.14;100.00
25722;BME280;13578;53.450;15.496;2023-02-03T06:53:40;99096.91;;;0.10;100.00
25722;BME280;13578;53.450;15.496;2023-02-03T06:56:41;99116.22;;;0.02;100.00
25722;BME280;13578;53.450;15.496;2023-02-03T06:59:41;99083.31;;;0.11;100.00
25722;BME280;13578;53.450;15.496;2023-02-03T07:02:42;99069.22;;;0.06;100.00
25722;BME280;13578;53.450;15.496;2023-02-03T07:05:43;99059.66;;;0.01;100.00
25722;BME280;13578;53.450;15.496;2023-02-03T07:08:44;99060.50;;;0.01;100.00
25722;BME280;13578;53.450;15.496;2023-02-03T07:11:44;99043.09;;;0.07;100.00
25722;BME280;13578;53.450;15.496;2023-02-03T07:14:45;99022.19;;;0.10;100.00
25722;BME280;13578;53.450;15.496;2023-02-03T07:17:46;99027.00;;;0.05;100.00
25722;BME280;13578;53.450;15.496;2023-02-03T07:20:53;99029.72;;;0.05;100.00
25722;BME280;13578;53.450;15.496;2023-02-03T07:23:54;99025.94;;;0.08;100.00
25722;BME280;13578;53.450;15.496;2023-02-03T07:26:54;99002.47;;;0.10;100.00
25722;BME280;13578;53.450;15.496;2023-02-03T07:29:55;98973.53;;;0.12;100.00
25722;BME280;13578;53.450;15.496;2023-02-03T07:32:55;98979.53;;;0.17;100.00
25722;BME280;13578;53.450;15.496;2023-02-03T07:35:58;98977.78;;;0.16;100.00
25722;BME280;13578;53.450;15.496;2023-02-03T07:38:58;98960.53;;;0.19;100.00
25722;BME280;13578;53.450;15.496;2023-02-03T07:41:59;98965.75;;;0.07;100.00
25722;BME280;13578;53.450;15.496;2023-02-03T07:45:00;98949.72;;;0.04;100.00
25722;BME280;13578;53.450;15.496;2023-02-03T07:48:00;98936.63;;;0.12;100.00
25722;BME280;13578;53.450;15.496;2023-02-03T07:51:01;98923.56;;;0.21;100.00
25722;BME280;13578;53.450;15.496;2023-02-03T07:54:02;98910.53;;;0.27;100.00
25722;BME280;13578;53.450;15.496;2023-02-03T07:57:02;98901.47;;;0.28;100.00
25722;BME280;13578;53.450;15.496;2023-02-03T08:00:03;98881.63;;;0.29;100.00
25722;BME280;13578;53.450;15.496;2023-02-03T08:03:04;98877.28;;;0.27;100.00
25722;BME280;13578;53.450;15.496;2023-02-03T08:06:05;98876.72;;;0.22;100.00
25722;BME280;13578;53.450;15.496;2023-02-03T08:09:06;98876.41;;;0.26;100.00
25722;BME280;13578;53.450;15.496;2023-02-03T08:12:06;98850.09;;;0.30;100.00
25722;BME280;13578;53.450;15.496;2023-02-03T08:15:07;98837.19;;;0.35;100.00
25722;BME280;13578;53.450;15.496;2023-02-03T08:18:08;98832.66;;;0.36;100.00
25722;BME280;13578;53.450;15.496;2023-02-03T08:21:11;98819.25;;;0.34;100.00
25722;BME280;13578;53.450;15.496;2023-02-03T08:24:12;98817.13;;;0.39;100.00
25722;BME280;13578;53.450;15.496;2023-02-03T08:27:19;98808.84;;;0.42;100.00
25722;BME280;13578;53.450;15.496;2023-02-03T08:30:21;98788.00;;;0.44;100.00
25722;BME280;13578;53.450;15.496;2023-02-03T08:33:22;98785.66;;;0.53;100.00
25722;BME280;13578;53.450;15.496;2023-02-03T08:36:23;98755.66;;;0.57;100.00
25722;BME280;13578;53.450;15.496;2023-02-03T08:39:24;98763.47;;;0.62;100.00
25722;BME280;13578;53.450;15.496;2023-02-03T08:42:24;98751.28;;;0.69;100.00
25722;BME280;13578;53.450;15.496;2023-02-03T08:45:25;98745.69;;;0.72;100.00
25722;BME280;13578;53.450;15.496;2023-02-03T08:48:25;98720.50;;;0.72;100.00
25722;BME280;13578;53.450;15.496;2023-02-03T08:51:27;98705.75;;;0.77;100.00
25722;BME280;13578;53.450;15.496;2023-02-03T08:54:28;98702.94;;;0.79;100.00
25722;BME280;13578;53.450;15.496;2023-02-03T08:57:35;98700.28;;;0.92;100.00
25722;BME280;13578;53.450;15.496;2023-02-03T09:00:36;98675.00;;;0.93;100.00
25722;BME280;13578;53.450;15.496;2023-02-03T09:03:38;98674.56;;;0.99;100.00
25722;BME280;13578;53.450;15.496;2023-02-03T09:06:39;98665.81;;;0.95;100.00
25722;BME280;13578;53.450;15.496;2023-02-03T09:09:39;98649.28;;;1.00;100.00
25722;BME280;13578;53.450;15.496;2023-02-03T09:12:40;98630.25;;;1.02;100.00
25722;BME280;13578;53.450;15.496;2023-02-03T09:15:40;98636.19;;;1.07;100.00
25722;BME280;13578;53.450;15.496;2023-02-03T09:18:41;98623.56;;;1.07;100.00
25722;BME280;13578;53.450;15.496;2023-02-03T09:21:42;98630.47;;;1.11;100.00
25722;BME280;13578;53.450;15.496;2023-02-03T09:24:43;98600.88;;;1.36;100.00
25722;BME280;13578;53.450;15.496;2023-02-03T09:27:43;98600.63;;;1.26;100.00
25722;BME280;13578;53.450;15.496;2023-02-03T09:30:44;98594.06;;;1.30;100.00
25722;BME280;13578;53.450;15.496;2023-02-03T09:33:46;98588.31;;;1.22;100.00
25722;BME280;13578;53.450;15.496;2023-02-03T09:36:47;98560.66;;;1.31;100.00
25722;BME280;13578;53.450;15.496;2023-02-03T09:39:48;98560.97;;;1.39;100.00
25722;BME280;13578;53.450;15.496;2023-02-03T09:46:17;98544.38;;;1.57;100.00
25722;BME280;13578;53.450;15.496;2023-02-03T09:49:41;98548.69;;;1.59;100.00
25722;BME280;13578;53.450;15.496;2023-02-03T09:52:43;98526.72;;;1.64;100.00
25722;BME280;13578;53.450;15.496;2023-02-03T09:55:44;98512.09;;;1.67;100.00
25722;BME280;13578;53.450;15.496;2023-02-03T09:58:45;98501.88;;;1.83;100.00
25722;BME280;13578;53.450;15.496;2023-02-03T10:02:15;98503.41;;;1.99;100.00
25722;BME280;13578;53.450;15.496;2023-02-03T10:15:19;98473.19;;;2.41;100.00
25722;BME280;13578;53.450;15.496;2023-02-03T10:18:27;98449.19;;;2.36;100.00
25722;BME280;13578;53.450;15.496;2023-02-03T10:21:40;98436.13;;;2.41;100.00
25722;BME280;13578;53.450;15.496;2023-02-03T10:24:47;98440.13;;;2.60;100.00
25722;BME280;13578;53.450;15.496;2023-02-03T10:27:54;98431.75;;;2.74;100.00
25722;BME280;13578;53.450;15.496;2023-02-03T10:30:59;98434.34;;;2.98;100.00
25722;BME280;13578;53.450;15.496;2023-02-03T10:34:14;98429.03;;;3.08;100.00
25722;BME280;13578;53.450;15.496;2023-02-03T10:37:29;98439.97;;;3.41;100.00
25722;BME280;13578;53.450;15.496;2023-02-03T10:40:31;98444.03;;;3.46;100.00
25722;BME280;13578;53.450;15.496;2023-02-03T10:43:32;98438.47;;;3.59;100.00
25722;BME280;13578;53.450;15.496;2023-02-03T10:46:50;98443.63;;;3.62;100.00
25722;BME280;13578;53.450;15.496;2023-02-03T10:49:53;98419.06;;;3.64;100.00
25722;BME280;13578;53.450;15.496;2023-02-03T10:56:20;98450.53;;;3.99;100.00
25722;BME280;13578;53.450;15.496;2023-02-03T10:59:30;98444.72;;;4.04;100.00
25722;BME280;13578;53.450;15.496;2023-02-03T11:02:31;98455.66;;;4.13;100.00
25722;BME280;13578;53.450;15.496;2023-02-03T11:05:32;98451.22;;;4.12;100.00
25722;BME280;13578;53.450;15.496;2023-02-03T11:08:35;98442.53;;;4.19;100.00
25722;BME280;13578;53.450;15.496;2023-02-03T11:11:36;98436.59;;;4.25;100.00
25722;BME280;13578;53.450;15.496;2023-02-03T11:14:51;98446.47;;;4.26;100.00
25722;BME280;13578;53.450;15.496;2023-02-03T11:17:52;98446.47;;;4.26;100.00
25722;BME280;13578;53.450;15.496;2023-02-03T11:20:52;98441.47;;;4.31;100.00
25722;BME280;13578;53.450;15.496;2023-02-03T11:23:59;98461.38;;;4.32;100.00
25722;BME280;13578;53.450;15.496;2023-02-03T11:27:09;98458.91;;;4.28;100.00
25722;BME280;13578;53.450;15.496;2023-02-03T11:33:20;98476.41;;;4.36;100.00
25722;BME280;13578;53.450;15.496;2023-02-03T11:36:28;98463.16;;;4.42;100.00
25722;BME280;13578;53.450;15.496;2023-02-03T11:39:30;98473.66;;;4.47;100.00
25722;BME280;13578;53.450;15.496;2023-02-03T11:42:36;98478.66;;;4.52;100.00
25722;BME280;13578;53.450;15.496;2023-02-03T11:49:01;98514.88;;;4.73;100.00
25722;BME280;13578;53.450;15.496;2023-02-03T11:52:27;98512.25;;;4.72;100.00
25722;BME280;13578;53.450;15.496;2023-02-03T12:12:19;98555.16;;;4.36;100.00
25722;BME280;13578;53.450;15.496;2023-02-03T12:19:41;98563.97;;;4.28;100.00
25722;BME280;13578;53.450;15.496;2023-02-03T12:22:59;98559.41;;;4.28;100.00
25722;BME280;13578;53.450;15.496;2023-02-03T12:29:33;98578.69;;;4.58;100.00
25722;BME280;13578;53.450;15.496;2023-02-03T12:32:53;98583.06;;;4.70;100.00
25722;BME280;13578;53.450;15.496;2023-02-03T12:36:07;98581.03;;;4.63;100.00
25722;BME280;13578;53.450;15.496;2023-02-03T12:39:25;98570.41;;;4.59;100.00
25722;BME280;13578;53.450;15.496;2023-02-03T12:42:35;98578.31;;;4.63;100.00
25722;BME280;13578;53.450;15.496;2023-02-03T12:45:38;98586.31;;;4.64;100.00
25722;BME280;13578;53.450;15.496;2023-02-03T12:52:04;98580.88;;;4.64;100.00
25722;BME280;13578;53.450;15.496;2023-02-03T12:55:35;98580.13;;;4.62;100.00
25722;BME280;13578;53.450;15.496;2023-02-03T13:01:46;98577.03;;;4.67;100.00
25722;BME280;13578;53.450;15.496;2023-02-03T13:04:57;98570.63;;;4.68;100.00
25722;BME280;13578;53.450;15.496;2023-02-03T13:17:38;98584.34;;;4.87;100.00
25722;BME280;13578;53.450;15.496;2023-02-03T13:20:42;98574.13;;;4.80;100.00
25722;BME280;13578;53.450;15.496;2023-02-03T13:23:44;98588.78;;;4.88;100.00
25722;BME280;13578;53.450;15.496;2023-02-03T13:27:15;98595.06;;;4.89;100.00
25722;BME280;13578;53.450;15.496;2023-02-03T13:34:35;98587.50;;;4.92;100.00
25722;BME280;13578;53.450;15.496;2023-02-03T13:37:55;98588.19;;;4.85;100.00
25722;BME280;13578;53.450;15.496;2023-02-03T13:44:14;98583.44;;;4.77;100.00
25722;BME280;13578;53.450;15.496;2023-02-03T13:47:20;98596.31;;;4.64;100.00
25722;BME280;13578;53.450;15.496;2023-02-03T13:50:23;98610.38;;;4.69;100.00
25722;BME280;13578;53.450;15.496;2023-02-03T13:53:24;98603.16;;;4.58;100.00
25722;BME280;13578;53.450;15.496;2023-02-03T13:56:26;98610.28;;;4.59;100.00
25722;BME280;13578;53.450;15.496;2023-02-03T14:02:43;98616.38;;;4.51;100.00
25722;BME280;13578;53.450;15.496;2023-02-03T14:05:46;98605.56;;;4.40;100.00
25722;BME280;13578;53.450;15.496;2023-02-03T14:08:51;98600.22;;;4.38;100.00
25722;BME280;13578;53.450;15.496;2023-02-03T14:18:32;98598.69;;;4.24;100.00
25722;BME280;13578;53.450;15.496;2023-02-03T14:21:50;98593.97;;;4.26;100.00
25722;BME280;13578;53.450;15.496;2023-02-03T14:24:53;98604.59;;;4.29;100.00
25722;BME280;13578;53.450;15.496;2023-02-03T14:28:02;98611.75;;;4.31;100.00
25722;BME280;13578;53.450;15.496;2023-02-03T14:34:16;98612.88;;;4.28;100.00
25722;BME280;13578;53.450;15.496;2023-02-03T14:37:28;98608.19;;;4.19;100.00
25722;BME280;13578;53.450;15.496;2023-02-03T14:40:34;98621.41;;;4.23;100.00
25722;BME280;13578;53.450;15.496;2023-02-03T14:43:47;98621.41;;;4.12;100.00
25722;BME280;13578;53.450;15.496;2023-02-03T14:51:18;98623.91;;;4.04;100.00
25722;BME280;13578;53.450;15.496;2023-02-03T15:00:33;98639.81;;;3.97;100.00
25722;BME280;13578;53.450;15.496;2023-02-03T15:03:34;98647.22;;;3.95;100.00
25722;BME280;13578;53.450;15.496;2023-02-03T15:06:42;98640.94;;;3.94;100.00
25722;BME280;13578;53.450;15.496;2023-02-03T15:09:45;98652.91;;;3.92;100.00
25722;BME280;13578;53.450;15.496;2023-02-03T15:12:52;98647.47;;;3.92;100.00
25722;BME280;13578;53.450;15.496;2023-02-03T15:16:03;98639.19;;;3.82;100.00
25722;BME280;13578;53.450;15.496;2023-02-03T15:19:15;98645.38;;;3.84;100.00
25722;BME280;13578;53.450;15.496;2023-02-03T15:22:36;98658.09;;;3.84;100.00
25722;BME280;13578;53.450;15.496;2023-02-03T15:25:37;98649.69;;;3.75;100.00
25722;BME280;13578;53.450;15.496;2023-02-03T15:28:38;98655.25;;;3.74;100.00
25722;BME280;13578;53.450;15.496;2023-02-03T15:32:11;98642.06;;;3.69;100.00
25722;BME280;13578;53.450;15.496;2023-02-03T15:35:29;98675.97;;;3.75;100.00
25722;BME280;13578;53.450;15.496;2023-02-03T15:38:32;98679.41;;;3.77;100.00
25722;BME280;13578;53.450;15.496;2023-02-03T15:41:46;98653.88;;;3.68;100.00
25722;BME280;13578;53.450;15.496;2023-02-03T15:48:45;98671.78;;;3.71;100.00
25722;BME280;13578;53.450;15.496;2023-02-03T15:51:59;98655.00;;;3.65;100.00
25722;BME280;13578;53.450;15.496;2023-02-03T15:55:14;98661.06;;;3.69;100.00
25722;BME280;13578;53.450;15.496;2023-02-03T15:58:22;98644.78;;;3.69;100.00
25722;BME280;13578;53.450;15.496;2023-02-03T16:01:24;98652.78;;;3.71;100.00
25722;BME280;13578;53.450;15.496;2023-02-03T16:04:27;98665.22;;;3.73;100.00
25722;BME280;13578;53.450;15.496;2023-02-03T16:07:29;98659.22;;;3.81;100.00
25722;BME280;13578;53.450;15.496;2023-02-03T16:10:32;98649.44;;;3.78;100.00
25722;BME280;13578;53.450;15.496;2023-02-03T16:13:33;98658.81;;;3.86;100.00
25722;BME280;13578;53.450;15.496;2023-02-03T16:16:50;98663.41;;;3.96;100.00
25722;BME280;13578;53.450;15.496;2023-02-03T16:23:23;98686.84;;;4.09;100.00
25722;BME280;13578;53.450;15.496;2023-02-03T16:26:32;98704.97;;;4.08;100.00
25722;BME280;13578;53.450;15.496;2023-02-03T16:29:36;98685.72;;;4.11;100.00
25722;BME280;13578;53.450;15.496;2023-02-03T16:36:27;98687.31;;;4.14;100.00
25722;BME280;13578;53.450;15.496;2023-02-03T16:39:46;98701.88;;;4.13;100.00
25722;BME280;13578;53.450;15.496;2023-02-03T16:43:10;98702.84;;;4.12;100.00
25722;BME280;13578;53.450;15.496;2023-02-03T16:46:30;98710.53;;;4.07;100.00
25722;BME280;13578;53.450;15.496;2023-02-03T16:49:49;98725.47;;;4.12;100.00
25722;BME280;13578;53.450;15.496;2023-02-03T16:53:20;98720.88;;;4.13;100.00
25722;BME280;13578;53.450;15.496;2023-02-03T16:56:22;98710.16;;;4.11;100.00
25722;BME280;13578;53.450;15.496;2023-02-03T16:59:23;98718.44;;;4.10;100.00
25722;BME280;13578;53.450;15.496;2023-02-03T17:02:23;98727.56;;;4.09;100.00
25722;BME280;13578;53.450;15.496;2023-02-03T17:05:24;98719.66;;;4.06;100.00
25722;BME280;13578;53.450;15.496;2023-02-03T17:08:25;98751.38;;;4.05;100.00
25722;BME280;13578;53.450;15.496;2023-02-03T17:11:25;98732.00;;;3.98;100.00
25722;BME280;13578;53.450;15.496;2023-02-03T17:14:26;98756.19;;;4.02;100.00
25722;BME280;13578;53.450;15.496;2023-02-03T17:17:27;98735.69;;;3.97;100.00
25722;BME280;13578;53.450;15.496;2023-02-03T17:20:28;98755.94;;;3.93;100.00
25722;BME280;13578;53.450;15.496;2023-02-03T17:23:29;98765.06;;;3.92;100.00
25722;BME280;13578;53.450;15.496;2023-02-03T17:26:30;98752.59;;;3.90;100.00
25722;BME280;13578;53.450;15.496;2023-02-03T17:29:31;98767.03;;;3.90;100.00
25722;BME280;13578;53.450;15.496;2023-02-03T17:32:31;98766.16;;;3.90;100.00
25722;BME280;13578;53.450;15.496;2023-02-03T17:35:32;98770.09;;;3.86;100.00
25722;BME280;13578;53.450;15.496;2023-02-03T17:38:44;98781.84;;;3.86;100.00
25722;BME280;13578;53.450;15.496;2023-02-03T17:41:45;98799.09;;;3.85;100.00
25722;BME280;13578;53.450;15.496;2023-02-03T17:44:46;98797.38;;;3.84;100.00
25722;BME280;13578;53.450;15.496;2023-02-03T17:47:48;98804.50;;;3.74;100.00
25722;BME280;13578;53.450;15.496;2023-02-03T17:50:49;98811.34;;;3.55;100.00
25722;BME280;13578;53.450;15.496;2023-02-03T17:53:50;98817.66;;;3.31;100.00
25722;BME280;13578;53.450;15.496;2023-02-03T17:56:50;98820.03;;;3.12;100.00
25722;BME280;13578;53.450;15.496;2023-02-03T17:59:51;98817.09;;;3.15;100.00
25722;BME280;13578;53.450;15.496;2023-02-03T18:02:54;98828.47;;;3.20;100.00
25722;BME280;13578;53.450;15.496;2023-02-03T18:05:55;98831.28;;;3.18;100.00
25722;BME280;13578;53.450;15.496;2023-02-03T18:08:56;98836.09;;;3.15;100.00
25722;BME280;13578;53.450;15.496;2023-02-03T18:12:00;98846.38;;;3.10;100.00